sensor_id;sensor_type;location;lat;lon;timestamp;pressure;altitude;pressure_sealevel;temperature;humidity
78149;BME280;67396;42.664;23.382;2023-06-22T00:02:14;95359.22;;;21.59;54.91
78149;BME280;67396;42.664;23.382;2023-06-22T00:04:40;95356.41;;;21.59;54.58
78149;BME280;67396;42.664;23.382;2023-06-22T00:07:05;95354.50;;;21.56;54.84
78149;BME280;67396;42.664;23.382;2023-06-22T00:09:31;95365.81;;;21.52;54.13
78149;BME280;67396;42.664;23.382;2023-06-22T00:11:57;95360.09;;;21.56;54.37
78149;BME280;67396;42.664;23.382;2023-06-22T00:14:23;95360.56;;;21.67;54.40
78149;BME280;67396;42.664;23.382;2023-06-22T00:16:48;95350.94;;;21.68;54.62
78149;BME280;67396;42.664;23.382;2023-06-22T00:19:15;95350.19;;;21.55;55.49
78149;BME280;67396;42.664;23.382;2023-06-22T00:21:40;95348.47;;;21.57;55.35
78149;BME280;67396;42.664;23.382;2023-06-22T00:24:07;95346.13;;;21.56;55.28
78149;BME280;67396;42.664;23.382;2023-06-22T00:26:33;95343.91;;;21.51;55.48
78149;BME280;67396;42.664;23.382;2023-06-22T00:28:58;95334.28;;;21.39;56.09
78149;BME280;67396;42.664;23.382;2023-06-22T00:31:23;95333.38;;;21.29;56.28
78149;BME280;67396;42.664;23.382;2023-06-22T00:33:49;95320.31;;;21.26;56.75
78149;BME280;67396;42.664;23.382;2023-06-22T00:36:16;95335.72;;;21.18;56.65
78149;BME280;67396;42.664;23.382;2023-06-22T00:38:43;95336.16;;;21.29;56.26
78149;BME280;67396;42.664;23.382;2023-06-22T00:41:08;95336.53;;;21.44;55.34
78149;BME280;67396;42.664;23.382;2023-06-22T00:43:34;95332.63;;;21.54;54.85
78149;BME280;67396;42.664;23.382;2023-06-22T00:45:59;95323.00;;;21.43;55.83
78149;BME280;67396;42.664;23.382;2023-06-22T00:48:25;95324.00;;;21.36;56.07
78149;BME280;67396;42.664;23.382;2023-06-22T00:50:51;95331.38;;;21.43;54.88
78149;BME280;67396;42.664;23.382;2023-06-22T00:53:19;95329.47;;;21.39;53.76
78149;BME280;67396;42.664;23.382;2023-06-22T00:55:48;95338.63;;;21.40;53.73
78149;BME280;67396;42.664;23.382;2023-06-22T00:58:17;95332.94;;;21.18;54.13
78149;BME280;67396;42.664;23.382;2023-06-22T01:00:47;95330.50;;;20.91;55.75
78149;BME280;67396;42.664;23.382;2023-06-22T01:03:13;95332.63;;;20.58;57.17
78149;BME280;67396;42.664;23.382;2023-06-22T01:05:39;95335.66;;;20.35;58.08
78149;BME280;67396;42.664;23.382;2023-06-22T01:08:27;95346.28;;;20.08;59.97
78149;BME280;67396;42.664;23.382;2023-06-22T01:11:01;95350.84;;;20.02;60.35
78149;BME280;67396;42.664;23.382;2023-06-22T01:16:30;95347.00;;;19.96;60.88
78149;BME280;67396;42.664;23.382;2023-06-22T01:18:57;95349.78;;;20.12;60.47
78149;BME280;67396;42.664;23.382;2023-06-22T01:21:31;95350.81;;;20.34;59.48
78149;BME280;67396;42.664;23.382;2023-06-22T01:24:20;95349.56;;;20.51;59.55
78149;BME280;67396;42.664;23.382;2023-06-22T01:27:01;95351.66;;;20.47;59.89
78149;BME280;67396;42.664;23.382;2023-06-22T01:29:32;95348.03;;;20.34;60.58
78149;BME280;67396;42.664;23.382;2023-06-22T01:31:59;95353.75;;;20.43;60.30
78149;BME280;67396;42.664;23.382;2023-06-22T01:34:27;95358.06;;;20.60;59.57
78149;BME280;67396;42.664;23.382;2023-06-22T01:36:54;95354.28;;;20.67;59.22
78149;BME280;67396;42.664;23.382;2023-06-22T01:39:21;95355.53;;;20.66;59.93
78149;BME280;67396;42.664;23.382;2023-06-22T01:41:47;95356.31;;;20.67;59.78
78149;BME280;67396;42.664;23.382;2023-06-22T01:44:13;95356.31;;;20.67;59.26
78149;BME280;67396;42.664;23.382;2023-06-22T01:46:39;95361.91;;;20.67;59.07
78149;BME280;67396;42.664;23.382;2023-06-22T01:49:06;95358.50;;;20.14;60.41
78149;BME280;67396;42.664;23.382;2023-06-22T01:51:31;95360.94;;;19.96;61.31
78149;BME280;67396;42.664;23.382;2023-06-22T01:53:57;95361.38;;;19.78;62.42
78149;BME280;67396;42.664;23.382;2023-06-22T01:56:23;95364.59;;;19.76;62.48
78149;BME280;67396;42.664;23.382;2023-06-22T02:02:04;95368.66;;;19.36;64.07
78149;BME280;67396;42.664;23.382;2023-06-22T02:07:13;95373.66;;;19.08;64.77
78149;BME280;67396;42.664;23.382;2023-06-22T02:09:44;95373.50;;;19.15;64.42
78149;BME280;67396;42.664;23.382;2023-06-22T02:12:21;95377.13;;;19.12;63.93
78149;BME280;67396;42.664;23.382;2023-06-22T02:14:48;95381.22;;;18.88;64.50
78149;BME280;67396;42.664;23.382;2023-06-22T02:17:14;95368.09;;;18.89;64.93
78149;BME280;67396;42.664;23.382;2023-06-22T02:19:43;95362.69;;;18.62;65.33
78149;BME280;67396;42.664;23.382;2023-06-22T02:22:08;95357.53;;;18.80;65.13
78149;BME280;67396;42.664;23.382;2023-06-22T02:24:34;95353.72;;;19.10;64.16
78149;BME280;67396;42.664;23.382;2023-06-22T02:27:00;95366.75;;;19.33;63.31
78149;BME280;67396;42.664;23.382;2023-06-22T02:29:26;95368.06;;;19.44;63.45
78149;BME280;67396;42.664;23.382;2023-06-22T02:31:54;95367.78;;;19.59;62.19
78149;BME280;67396;42.664;23.382;2023-06-22T02:34:21;95362.06;;;19.66;62.01
78149;BME280;67396;42.664;23.382;2023-06-22T02:36:48;95357.97;;;19.86;67.66
78149;BME280;67396;42.664;23.382;2023-06-22T02:39:21;95362.03;;;20.14;64.26
78149;BME280;67396;42.664;23.382;2023-06-22T02:41:50;95365.81;;;20.40;64.04
78149;BME280;67396;42.664;23.382;2023-06-22T02:44:16;95368.69;;;20.37;61.63
78149;BME280;67396;42.664;23.382;2023-06-22T02:46:42;95365.63;;;20.47;62.19
78149;BME280;67396;42.664;23.382;2023-06-22T02:49:08;95363.78;;;20.41;61.47
78149;BME280;67396;42.664;23.382;2023-06-22T02:55:02;95374.09;;;20.11;62.21
78149;BME280;67396;42.664;23.382;2023-06-22T02:57:48;95371.19;;;19.82;63.40
78149;BME280;67396;42.664;23.382;2023-06-22T03:00:17;95380.88;;;19.94;63.77
78149;BME280;67396;42.664;23.382;2023-06-22T03:02:44;95378.16;;;19.90;63.31
78149;BME280;67396;42.664;23.382;2023-06-22T03:05:10;95372.06;;;19.79;62.57
78149;BME280;67396;42.664;23.382;2023-06-22T03:07:41;95376.66;;;19.53;63.77
78149;BME280;67396;42.664;23.382;2023-06-22T03:10:08;95375.19;;;19.81;62.34
78149;BME280;67396;42.664;23.382;2023-06-22T03:12:55;95377.47;;;19.86;62.32
78149;BME280;67396;42.664;23.382;2023-06-22T03:15:49;95376.78;;;19.82;62.22
78149;BME280;67396;42.664;23.382;2023-06-22T03:18:54;95382.44;;;19.79;63.31
78149;BME280;67396;42.664;23.382;2023-06-22T03:21:23;95392.00;;;19.42;64.07
78149;BME280;67396;42.664;23.382;2023-06-22T03:23:48;95399.34;;;19.16;65.02
78149;BME280;67396;42.664;23.382;2023-06-22T03:26:17;95398.56;;;18.96;66.18
78149;BME280;67396;42.664;23.382;2023-06-22T03:32:15;95395.38;;;18.54;67.96
78149;BME280;67396;42.664;23.382;2023-06-22T03:43:19;95414.31;;;19.02;67.16
78149;BME280;67396;42.664;23.382;2023-06-22T03:46:09;95408.81;;;19.18;66.82
78149;BME280;67396;42.664;23.382;2023-06-22T03:48:35;95414.03;;;19.16;67.23
78149;BME280;67396;42.664;23.382;2023-06-22T03:51:01;95408.44;;;19.56;65.34
78149;BME280;67396;42.664;23.382;2023-06-22T03:53:28;95419.66;;;19.52;65.59
78149;BME280;67396;42.664;23.382;2023-06-22T03:55:53;95417.38;;;19.47;65.92
78149;BME280;67396;42.664;23.382;2023-06-22T03:58:20;95417.56;;;19.37;66.21
78149;BME280;67396;42.664;23.382;2023-06-22T04:00:50;95431.53;;;19.17;67.35
78149;BME280;67396;42.664;23.382;2023-06-22T04:03:16;95421.06;;;19.41;66.81
78149;BME280;67396;42.664;23.382;2023-06-22T04:05:45;95431.06;;;19.58;66.35
78149;BME280;67396;42.664;23.382;2023-06-22T04:08:12;95431.28;;;19.28;67.16
78149;BME280;67396;42.664;23.382;2023-06-22T04:10:38;95437.28;;;19.06;67.79
78149;BME280;67396;42.664;23.382;2023-06-22T04:13:03;95428.59;;;19.24;67.50
78149;BME280;67396;42.664;23.382;2023-06-22T04:15:29;95421.19;;;19.53;66.48
78149;BME280;67396;42.664;23.382;2023-06-22T04:17:55;95420.56;;;19.82;65.58
78149;BME280;67396;42.664;23.382;2023-06-22T04:20:21;95421.72;;;20.01;65.32
78149;BME280;67396;42.664;23.382;2023-06-22T04:22:47;95418.69;;;20.11;64.99
78149;BME280;67396;42.664;23.382;2023-06-22T04:25:13;95417.47;;;20.45;63.69
78149;BME280;67396;42.664;23.382;2023-06-22T04:27:39;95413.72;;;20.35;63.80
78149;BME280;67396;42.664;23.382;2023-06-22T04:30:07;95402.50;;;20.67;61.55
78149;BME280;67396;42.664;23.382;2023-06-22T04:32:34;95398.22;;;20.34;62.69
78149;BME280;67396;42.664;23.382;2023-06-22T04:35:02;95397.41;;;20.50;62.34
78149;BME280;67396;42.664;23.382;2023-06-22T04:37:27;95398.69;;;20.61;62.49
78149;BME280;67396;42.664;23.382;2023-06-22T04:39:53;95390.78;;;20.89;60.70
78149;BME280;67396;42.664;23.382;2023-06-22T04:42:18;95393.28;;;21.12;58.99
78149;BME280;67396;42.664;23.382;2023-06-22T04:44:43;95387.22;;;21.30;59.36
78149;BME280;67396;42.664;23.382;2023-06-22T04:47:09;95391.44;;;21.22;60.41
78149;BME280;67396;42.664;23.382;2023-06-22T04:49:36;95397.63;;;21.00;61.82
78149;BME280;67396;42.664;23.382;2023-06-22T04:52:09;95393.94;;;21.32;59.37
78149;BME280;67396;42.664;23.382;2023-06-22T04:54:36;95405.84;;;21.20;59.97
78149;BME280;67396;42.664;23.382;2023-06-22T04:57:03;95408.31;;;20.89;61.92
78149;BME280;67396;42.664;23.382;2023-06-22T04:59:30;95415.81;;;20.76;61.58
78149;BME280;67396;42.664;23.382;2023-06-22T05:02:00;95422.84;;;20.52;62.10
78149;BME280;67396;42.664;23.382;2023-06-22T05:04:27;95425.03;;;20.28;63.51
78149;BME280;67396;42.664;23.382;2023-06-22T05:06:54;95419.63;;;20.21;63.99
78149;BME280;67396;42.664;23.382;2023-06-22T05:09:20;95426.84;;;20.18;64.54
78149;BME280;67396;42.664;23.382;2023-06-22T05:11:46;95419.28;;;20.51;63.32
78149;BME280;67396;42.664;23.382;2023-06-22T05:14:12;95416.44;;;20.84;62.65
78149;BME280;67396;42.664;23.382;2023-06-22T05:16:38;95419.84;;;21.33;61.51
78149;BME280;67396;42.664;23.382;2023-06-22T05:19:04;95410.38;;;21.43;60.77
78149;BME280;67396;42.664;23.382;2023-06-22T05:21:30;95412.38;;;21.43;60.78
78149;BME280;67396;42.664;23.382;2023-06-22T05:23:56;95415.31;;;21.52;60.93
78149;BME280;67396;42.664;23.382;2023-06-22T05:26:34;95420.09;;;21.51;59.96
78149;BME280;67396;42.664;23.382;2023-06-22T05:29:01;95427.22;;;21.39;59.82
78149;BME280;67396;42.664;23.382;2023-06-22T05:31:27;95424.44;;;21.39;59.91
78149;BME280;67396;42.664;23.382;2023-06-22T05:33:54;95427.94;;;21.82;59.12
78149;BME280;67396;42.664;23.382;2023-06-22T05:36:20;95430.00;;;22.19;57.51
78149;BME280;67396;42.664;23.382;2023-06-22T05:38:50;95443.66;;;22.04;57.68
78149;BME280;67396;42.664;23.382;2023-06-22T05:41:15;95439.50;;;22.22;58.73
78149;BME280;67396;42.664;23.382;2023-06-22T05:43:41;95448.22;;;22.36;58.22
78149;BME280;67396;42.664;23.382;2023-06-22T05:46:06;95448.50;;;22.64;56.75
78149;BME280;67396;42.664;23.382;2023-06-22T05:48:32;95454.56;;;22.97;56.13
78149;BME280;67396;42.664;23.382;2023-06-22T05:50:58;95460.84;;;23.01;55.95
78149;BME280;67396;42.664;23.382;2023-06-22T05:53:23;95455.59;;;23.03;55.50
78149;BME280;67396;42.664;23.382;2023-06-22T05:55:49;95456.06;;;22.88;56.29
78149;BME280;67396;42.664;23.382;2023-06-22T05:58:25;95450.50;;;23.10;56.08
78149;BME280;67396;42.664;23.382;2023-06-22T06:00:50;95456.19;;;23.19;56.31
78149;BME280;67396;42.664;23.382;2023-06-22T06:03:16;95446.59;;;23.08;55.90
78149;BME280;67396;42.664;23.382;2023-06-22T06:05:42;95433.47;;;23.05;56.74
78149;BME280;67396;42.664;23.382;2023-06-22T06:08:08;95448.81;;;23.13;56.29
78149;BME280;67396;42.664;23.382;2023-06-22T06:10:35;95444.69;;;23.05;55.74
78149;BME280;67396;42.664;23.382;2023-06-22T06:13:01;95440.28;;;23.38;56.00
78149;BME280;67396;42.664;23.382;2023-06-22T06:15:34;95431.09;;;23.59;54.27
78149;BME280;67396;42.664;23.382;2023-06-22T06:17:59;95434.41;;;23.67;54.85
78149;BME280;67396;42.664;23.382;2023-06-22T06:20:26;95428.34;;;23.69;55.11
78149;BME280;67396;42.664;23.382;2023-06-22T06:22:53;95422.84;;;23.87;54.79
78149;BME280;67396;42.664;23.382;2023-06-22T06:25:18;95431.16;;;23.69;54.43
78149;BME280;67396;42.664;23.382;2023-06-22T06:27:46;95431.66;;;23.76;55.12
78149;BME280;67396;42.664;23.382;2023-06-22T06:30:13;95431.47;;;24.01;54.03
78149;BME280;67396;42.664;23.382;2023-06-22T06:32:39;95423.09;;;24.11;53.67
78149;BME280;67396;42.664;23.382;2023-06-22T06:35:09;95429.56;;;24.29;53.21
78149;BME280;67396;42.664;23.382;2023-06-22T06:37:43;95435.38;;;24.04;53.24
78149;BME280;67396;42.664;23.382;2023-06-22T06:40:10;95426.19;;;24.34;53.40
78149;BME280;67396;42.664;23.382;2023-06-22T06:42:37;95429.28;;;25.04;51.34
78149;BME280;67396;42.664;23.382;2023-06-22T06:45:04;95407.50;;;25.68;50.80
78149;BME280;67396;42.664;23.382;2023-06-22T06:47:30;95417.91;;;25.86;49.08
78149;BME280;67396;42.664;23.382;2023-06-22T06:49:56;95419.16;;;25.94;49.07
78149;BME280;67396;42.664;23.382;2023-06-22T06:52:21;95418.84;;;25.92;49.25
78149;BME280;67396;42.664;23.382;2023-06-22T06:54:47;95414.75;;;26.02;47.27
78149;BME280;67396;42.664;23.382;2023-06-22T06:57:28;95398.66;;;26.03;47.35
78149;BME280;67396;42.664;23.382;2023-06-22T06:59:55;95406.28;;;25.60;48.37
78149;BME280;67396;42.664;23.382;2023-06-22T07:02:21;95405.00;;;25.52;48.95
78149;BME280;67396;42.664;23.382;2023-06-22T07:04:47;95399.75;;;24.99;49.67
78149;BME280;67396;42.664;23.382;2023-06-22T07:07:13;95400.50;;;24.91;49.97
78149;BME280;67396;42.664;23.382;2023-06-22T07:09:42;95411.94;;;25.05;49.75
78149;BME280;67396;42.664;23.382;2023-06-22T07:12:07;95410.66;;;24.79;51.45
78149;BME280;67396;42.664;23.382;2023-06-22T07:14:33;95417.03;;;24.52;51.63
78149;BME280;67396;42.664;23.382;2023-06-22T07:16:58;95409.50;;;24.40;51.78
78149;BME280;67396;42.664;23.382;2023-06-22T07:19:27;95413.91;;;24.59;52.60
78149;BME280;67396;42.664;23.382;2023-06-22T07:21:56;95414.44;;;25.22;50.94
78149;BME280;67396;42.664;23.382;2023-06-22T07:24:22;95410.94;;;25.54;49.77
78149;BME280;67396;42.664;23.382;2023-06-22T07:26:48;95403.00;;;26.04;47.34
78149;BME280;67396;42.664;23.382;2023-06-22T07:29:16;95406.38;;;26.26;46.52
78149;BME280;67396;42.664;23.382;2023-06-22T07:31:42;95408.03;;;26.00;47.85
78149;BME280;67396;42.664;23.382;2023-06-22T07:34:07;95404.84;;;26.16;48.16
78149;BME280;67396;42.664;23.382;2023-06-22T07:36:32;95401.84;;;26.52;46.49
78149;BME280;67396;42.664;23.382;2023-06-22T07:39:02;95404.19;;;26.54;46.66
78149;BME280;67396;42.664;23.382;2023-06-22T07:41:57;95402.44;;;26.56;46.51
78149;BME280;67396;42.664;23.382;2023-06-22T07:51:07;95411.72;;;27.19;43.89
78149;BME280;67396;42.664;23.382;2023-06-22T07:53:33;95410.94;;;27.57;42.38
78149;BME280;67396;42.664;23.382;2023-06-22T07:55:58;95405.44;;;27.24;44.37
78149;BME280;67396;42.664;23.382;2023-06-22T07:58:23;95402.88;;;26.88;45.51
78149;BME280;67396;42.664;23.382;2023-06-22T08:00:49;95403.47;;;27.16;44.47
78149;BME280;67396;42.664;23.382;2023-06-22T08:03:14;95401.19;;;27.44;45.08
78149;BME280;67396;42.664;23.382;2023-06-22T08:05:40;95394.38;;;27.94;44.98
78149;BME280;67396;42.664;23.382;2023-06-22T08:08:06;95392.59;;;28.12;42.44
78149;BME280;67396;42.664;23.382;2023-06-22T08:10:31;95392.53;;;28.21;42.26
78149;BME280;67396;42.664;23.382;2023-06-22T08:12:57;95391.81;;;28.26;43.21
78149;BME280;67396;42.664;23.382;2023-06-22T08:15:22;95391.00;;;28.40;43.19
78149;BME280;67396;42.664;23.382;2023-06-22T08:17:48;95386.94;;;28.61;41.82
78149;BME280;67396;42.664;23.382;2023-06-22T08:20:14;95389.88;;;28.52;40.31
78149;BME280;67396;42.664;23.382;2023-06-22T08:22:43;95378.75;;;28.63;40.04
78149;BME280;67396;42.664;23.382;2023-06-22T08:25:09;95373.66;;;28.47;40.01
78149;BME280;67396;42.664;23.382;2023-06-22T08:27:35;95372.50;;;28.39;40.80
78149;BME280;67396;42.664;23.382;2023-06-22T08:30:00;95368.00;;;28.47;40.54
78149;BME280;67396;42.664;23.382;2023-06-22T08:32:29;95373.16;;;28.84;41.66
78149;BME280;67396;42.664;23.382;2023-06-22T08:34:56;95368.28;;;28.49;42.05
78149;BME280;67396;42.664;23.382;2023-06-22T08:37:21;95371.25;;;27.61;43.90
78149;BME280;67396;42.664;23.382;2023-06-22T08:39:57;95371.78;;;26.58;45.41
78149;BME280;67396;42.664;23.382;2023-06-22T08:42:22;95378.97;;;26.36;47.62
78149;BME280;67396;42.664;23.382;2023-06-22T08:44:49;95386.22;;;26.51;48.10
78149;BME280;67396;42.664;23.382;2023-06-22T08:47:15;95387.59;;;26.80;46.33
78149;BME280;67396;42.664;23.382;2023-06-22T08:49:43;95382.88;;;27.24;45.32
78149;BME280;67396;42.664;23.382;2023-06-22T08:52:09;95378.41;;;27.47;45.22
78149;BME280;67396;42.664;23.382;2023-06-22T08:54:34;95374.56;;;27.59;43.56
78149;BME280;67396;42.664;23.382;2023-06-22T08:57:01;95374.81;;;27.91;42.45
78149;BME280;67396;42.664;23.382;2023-06-22T08:59:27;95369.81;;;28.30;40.63
78149;BME280;67396;42.664;23.382;2023-06-22T09:01:53;95364.03;;;28.59;40.17
78149;BME280;67396;42.664;23.382;2023-06-22T09:04:19;95351.22;;;28.78;39.97
78149;BME280;67396;42.664;23.382;2023-06-22T09:06:47;95360.81;;;28.87;39.72
78149;BME280;67396;42.664;23.382;2023-06-22T09:09:13;95359.25;;;29.06;38.99
78149;BME280;67396;42.664;23.382;2023-06-22T09:11:39;95360.22;;;29.23;39.45
78149;BME280;67396;42.664;23.382;2023-06-22T09:14:05;95363.03;;;29.43;38.92
78149;BME280;67396;42.664;23.382;2023-06-22T09:16:33;95358.53;;;29.57;38.37
78149;BME280;67396;42.664;23.382;2023-06-22T09:18:59;95363.56;;;29.73;38.74
78149;BME280;67396;42.664;23.382;2023-06-22T09:21:24;95346.47;;;29.88;40.02
78149;BME280;67396;42.664;23.382;2023-06-22T09:23:53;95367.56;;;29.87;39.36
78149;BME280;67396;42.664;23.382;2023-06-22T09:26:19;95364.66;;;30.07;38.85
78149;BME280;67396;42.664;23.382;2023-06-22T09:28:46;95356.97;;;30.13;37.97
78149;BME280;67396;42.664;23.382;2023-06-22T09:31:12;95357.91;;;29.73;39.68
78149;BME280;67396;42.664;23.382;2023-06-22T09:33:40;95363.16;;;29.54;40.32
78149;BME280;67396;42.664;23.382;2023-06-22T09:36:06;95362.47;;;29.39;41.37
78149;BME280;67396;42.664;23.382;2023-06-22T09:38:36;95366.28;;;29.88;39.81
78149;BME280;67396;42.664;23.382;2023-06-22T09:41:01;95363.16;;;30.17;38.60
78149;BME280;67396;42.664;23.382;2023-06-22T09:43:27;95362.53;;;30.34;38.16
78149;BME280;67396;42.664;23.382;2023-06-22T09:45:52;95353.66;;;30.52;37.92
78149;BME280;67396;42.664;23.382;2023-06-22T09:48:18;95357.81;;;30.62;38.46
78149;BME280;67396;42.664;23.382;2023-06-22T09:50:43;95357.19;;;30.47;38.58
78149;BME280;67396;42.664;23.382;2023-06-22T09:53:09;95355.53;;;30.29;37.64
78149;BME280;67396;42.664;23.382;2023-06-22T09:55:34;95358.25;;;29.81;36.24
78149;BME280;67396;42.664;23.382;2023-06-22T09:58:00;95358.16;;;29.70;38.24
78149;BME280;67396;42.664;23.382;2023-06-22T10:00:25;95344.91;;;29.87;35.90
78149;BME280;67396;42.664;23.382;2023-06-22T10:02:52;95336.41;;;30.18;34.95
78149;BME280;67396;42.664;23.382;2023-06-22T10:05:17;95339.25;;;30.18;35.41
78149;BME280;67396;42.664;23.382;2023-06-22T10:07:43;95344.91;;;30.18;35.17
78149;BME280;67396;42.664;23.382;2023-06-22T10:10:10;95338.50;;;30.23;36.82
78149;BME280;67396;42.664;23.382;2023-06-22T10:12:40;95328.16;;;30.52;35.84
78149;BME280;67396;42.664;23.382;2023-06-22T10:15:06;95323.56;;;30.65;34.46
78149;BME280;67396;42.664;23.382;2023-06-22T10:17:32;95329.44;;;30.56;34.91
78149;BME280;67396;42.664;23.382;2023-06-22T10:19:57;95334.00;;;30.43;34.98
78149;BME280;67396;42.664;23.382;2023-06-22T10:22:23;95330.50;;;30.16;35.20
78149;BME280;67396;42.664;23.382;2023-06-22T10:24:48;95324.16;;;30.33;35.01
78149;BME280;67396;42.664;23.382;2023-06-22T10:27:14;95331.41;;;30.45;34.77
78149;BME280;67396;42.664;23.382;2023-06-22T10:29:39;95324.69;;;30.37;34.29
78149;BME280;67396;42.664;23.382;2023-06-22T10:32:05;95327.91;;;30.61;32.96
78149;BME280;67396;42.664;23.382;2023-06-22T10:34:31;95323.66;;;30.40;34.13
78149;BME280;67396;42.664;23.382;2023-06-22T10:36:56;95314.69;;;30.47;33.41
78149;BME280;67396;42.664;23.382;2023-06-22T10:39:21;95304.44;;;30.12;34.65
78149;BME280;67396;42.664;23.382;2023-06-22T10:41:47;95314.44;;;29.76;34.89
78149;BME280;67396;42.664;23.382;2023-06-22T10:44:13;95314.19;;;29.23;36.74
78149;BME280;67396;42.664;23.382;2023-06-22T10:46:38;95313.88;;;29.15;37.87
78149;BME280;67396;42.664;23.382;2023-06-22T10:49:04;95312.22;;;29.29;37.25
78149;BME280;67396;42.664;23.382;2023-06-22T10:51:30;95313.41;;;29.22;38.62
78149;BME280;67396;42.664;23.382;2023-06-22T10:53:56;95307.13;;;28.66;38.33
78149;BME280;67396;42.664;23.382;2023-06-22T10:56:23;95304.81;;;28.65;37.01
78149;BME280;67396;42.664;23.382;2023-06-22T10:58:49;95302.81;;;28.30;37.10
78149;BME280;67396;42.664;23.382;2023-06-22T11:01:15;95306.91;;;28.15;38.18
78149;BME280;67396;42.664;23.382;2023-06-22T11:03:41;95311.16;;;28.39;37.42
78149;BME280;67396;42.664;23.382;2023-06-22T11:06:06;95306.00;;;28.58;36.86
78149;BME280;67396;42.664;23.382;2023-06-22T11:08:31;95304.84;;;28.50;37.48
78149;BME280;67396;42.664;23.382;2023-06-22T11:10:57;95299.50;;;28.52;37.96
78149;BME280;67396;42.664;23.382;2023-06-22T11:13:22;95305.34;;;28.69;37.49
78149;BME280;67396;42.664;23.382;2023-06-22T11:15:48;95301.41;;;28.81;37.25
78149;BME280;67396;42.664;23.382;2023-06-22T11:18:13;95301.97;;;28.85;35.62
78149;BME280;67396;42.664;23.382;2023-06-22T11:20:39;95297.66;;;28.90;35.91
78149;BME280;67396;42.664;23.382;2023-06-22T11:23:06;95300.00;;;28.91;35.21
78149;BME280;67396;42.664;23.382;2023-06-22T11:25:31;95293.16;;;28.77;34.70
78149;BME280;67396;42.664;23.382;2023-06-22T11:28:22;95292.28;;;28.71;34.63
78149;BME280;67396;42.664;23.382;2023-06-22T11:30:51;95285.31;;;28.47;35.24
78149;BME280;67396;42.664;23.382;2023-06-22T11:33:17;95282.84;;;28.54;36.01
78149;BME280;67396;42.664;23.382;2023-06-22T11:35:42;95274.06;;;28.52;36.48
78149;BME280;67396;42.664;23.382;2023-06-22T11:38:08;95279.56;;;28.61;36.47
78149;BME280;67396;42.664;23.382;2023-06-22T11:40:33;95287.56;;;28.63;35.55
78149;BME280;67396;42.664;23.382;2023-06-22T11:43:03;95275.19;;;28.60;35.13
78149;BME280;67396;42.664;23.382;2023-06-22T11:45:32;95270.97;;;28.50;35.88
78149;BME280;67396;42.664;23.382;2023-06-22T11:51:29;95267.22;;;29.56;34.08
78149;BME280;67396;42.664;23.382;2023-06-22T11:54:08;95265.78;;;30.04;32.83
78149;BME280;67396;42.664;23.382;2023-06-22T11:56:58;95256.94;;;30.33;32.13
78149;BME280;67396;42.664;23.382;2023-06-22T11:59:57;95250.25;;;31.07;30.67
78149;BME280;67396;42.664;23.382;2023-06-22T12:02:22;95249.31;;;31.65;29.90
78149;BME280;67396;42.664;23.382;2023-06-22T12:04:57;95250.00;;;32.10;29.50
78149;BME280;67396;42.664;23.382;2023-06-22T12:07:29;95262.94;;;32.06;28.99
78149;BME280;67396;42.664;23.382;2023-06-22T12:09:54;95264.75;;;32.09;29.74
78149;BME280;67396;42.664;23.382;2023-06-22T12:12:20;95258.56;;;31.94;29.24
78149;BME280;67396;42.664;23.382;2023-06-22T12:14:45;95264.75;;;31.98;29.34
78149;BME280;67396;42.664;23.382;2023-06-22T12:17:11;95277.41;;;32.25;30.46
78149;BME280;67396;42.664;23.382;2023-06-22T12:19:37;95300.91;;;31.81;32.56
78149;BME280;67396;42.664;23.382;2023-06-22T12:22:16;95281.94;;;30.94;34.00
78149;BME280;67396;42.664;23.382;2023-06-22T12:24:45;95283.13;;;30.17;35.00
78149;BME280;67396;42.664;23.382;2023-06-22T12:27:10;95282.28;;;29.42;37.13
78149;BME280;67396;42.664;23.382;2023-06-22T12:29:35;95280.84;;;29.01;37.63
78149;BME280;67396;42.664;23.382;2023-06-22T12:32:01;95277.63;;;28.47;38.46
78149;BME280;67396;42.664;23.382;2023-06-22T12:34:26;95285.00;;;28.24;38.88
78149;BME280;67396;42.664;23.382;2023-06-22T12:36:52;95293.50;;;28.09;39.17
78149;BME280;67396;42.664;23.382;2023-06-22T12:39:20;95297.72;;;27.99;40.06
78149;BME280;67396;42.664;23.382;2023-06-22T12:41:45;95310.13;;;27.87;41.75
78149;BME280;67396;42.664;23.382;2023-06-22T12:44:11;95327.38;;;27.60;44.24
78149;BME280;67396;42.664;23.382;2023-06-22T12:46:36;95318.72;;;27.34;45.68
78149;BME280;67396;42.664;23.382;2023-06-22T12:49:04;95311.69;;;27.29;45.99
78149;BME280;67396;42.664;23.382;2023-06-22T12:51:38;95318.81;;;26.72;49.10
78149;BME280;67396;42.664;23.382;2023-06-22T12:54:24;95328.84;;;25.92;52.06
78149;BME280;67396;42.664;23.382;2023-06-22T12:57:33;95332.28;;;25.87;51.06
78149;BME280;67396;42.664;23.382;2023-06-22T12:59:59;95339.84;;;26.05;50.67
78149;BME280;67396;42.664;23.382;2023-06-22T13:02:25;95335.69;;;26.24;49.44
78149;BME280;67396;42.664;23.382;2023-06-22T13:04:51;95342.22;;;26.30;49.76
78149;BME280;67396;42.664;23.382;2023-06-22T13:07:16;95332.66;;;26.37;49.95
78149;BME280;67396;42.664;23.382;2023-06-22T13:09:41;95338.19;;;26.22;51.41
78149;BME280;67396;42.664;23.382;2023-06-22T13:12:07;95330.34;;;26.02;52.76
78149;BME280;67396;42.664;23.382;2023-06-22T13:14:33;95327.72;;;25.47;54.36
78149;BME280;67396;42.664;23.382;2023-06-22T13:16:58;95329.81;;;25.29;54.37
78149;BME280;67396;42.664;23.382;2023-06-22T13:19:24;95331.97;;;25.34;54.13
78149;BME280;67396;42.664;23.382;2023-06-22T13:21:49;95326.94;;;25.47;53.62
78149;BME280;67396;42.664;23.382;2023-06-22T13:24:15;95337.69;;;25.67;52.16
78149;BME280;67396;42.664;23.382;2023-06-22T13:26:41;95351.91;;;25.54;53.13
78149;BME280;67396;42.664;23.382;2023-06-22T13:29:07;95335.38;;;25.47;53.79